This is the latest recevied weather packets stored in our database for station/object N1OF. If no packets are shown the sender has not sent any weather packets the latest 10 day(s).
| Time | Temp. | Humidity | Pressure | Rain* | Wind** | Luminosity | Snow |
|---|---|---|---|---|---|---|---|
| 1777054998 | 27.22° C | 47% | 1007.6 hPa | 0 mm | - | - | - |
| 1777054694 | 27.22° C | 47% | 1007.6 hPa | 0 mm | - | - | - |
| 1777054391 | 26.67° C | 47% | 1007.6 hPa | 0 mm | - | - | - |
| 1777054089 | 26.67° C | 48% | 1007.8 hPa | 0 mm | - | - | - |
| 1777053785 | 26.67° C | 49% | 1008 hPa | 0 mm | - | - | - |
| 1777053484 | 26.67° C | 48% | 1007.8 hPa | 0 mm | - | - | - |
| 1777053180 | 26.67° C | 49% | 1007.9 hPa | 0 mm | - | - | - |
| 1777052876 | 26.67° C | 49% | 1008.2 hPa | 0 mm | - | - | - |
| 1777052572 | 26.67° C | 48% | 1008 hPa | 0 mm | - | - | - |
| 1777052268 | 26.67° C | 48% | 1008.1 hPa | 0 mm | - | - | - |
| 1777051964 | 26.11° C | 49% | 1008.2 hPa | 0 mm | - | - | - |
| 1777051660 | 26.11° C | 50% | 1008.3 hPa | 0 mm | - | - | - |
| 1777051356 | 25° C | 54% | 1008.4 hPa | 0 mm | - | - | - |
| 1777051047 | 25° C | 54% | 1008.5 hPa | 0 mm | - | - | - |
| 1777050743 | 24.44° C | 55% | 1008.5 hPa | 0 mm | - | - | - |
| 1777050438 | 25° C | 52% | 1008.5 hPa | 0 mm | - | - | - |
| 1777050138 | 25.56° C | 51% | 1008.5 hPa | 0 mm | - | - | - |
| 1777049833 | 25° C | 52% | 1008.7 hPa | 0 mm | - | - | - |
| 1777049528 | 25.56° C | 53% | 1008.7 hPa | 0 mm | - | - | - |
| 1777049227 | 25° C | 53% | 1008.9 hPa | 0 mm | - | - | - |
| 1777048923 | 24.44° C | 54% | 1008.9 hPa | 0 mm | - | - | - |
| 1777048617 | 24.44° C | 54% | 1008.9 hPa | 0 mm | - | - | - |
| 1777048313 | 24.44° C | 53% | 1009 hPa | 0 mm | - | - | - |
| 1777048007 | 25° C | 53% | 1009.1 hPa | 0 mm | - | - | - |
| 1777047703 | 25.56° C | 51% | 1008.9 hPa | 0 mm | - | - | - |
* Rain latest hour (hover to see other rain measurements)
** Current wind speed in m/s (hover to see current wind gust speed)